Time;durP1;ratioP1;P1;durP2;ratioP2;P2;SDS_P1;SDS_P2;PMS_P1;PMS_P2;Temp;Humidity;BMP_temperature;BMP_pressure;BME280_temperature;BME280_humidity;BME280_pressure;Samples;Min_cycle;Max_cycle;Signal;HPM_P1;HPM_P2
2024/01/23 00:01:56;;;;;;;14.48;2.38;;;5.40;99.90;;;;;;5041611;28;20705;-57
2024/01/23 00:04:24;;;;;;;13.73;1.67;;;5.50;99.90;;;;;;5028551;28;20261;-57
2024/01/23 00:06:51;;;;;;;10.25;1.75;;;5.70;99.90;;;;;;5030450;28;20664;-57
2024/01/23 00:09:19;;;;;;;10.60;1.80;;;5.90;99.90;;;;;;5029561;28;20207;-57
2024/01/23 00:11:47;;;;;;;7.90;1.52;;;6.00;99.90;;;;;;5031677;28;20219;-57
2024/01/23 00:14:17;;;;;;;10.90;1.75;;;6.00;99.90;;;;;;5031384;28;20711;-58
2024/01/23 00:16:45;;;;;;;12.00;1.42;;;6.00;99.90;;;;;;5045426;28;20198;-58
2024/01/23 00:19:13;;;;;;;10.35;2.15;;;6.00;99.90;;;;;;5032915;28;20246;-58
2024/01/23 00:21:40;;;;;;;12.40;1.48;;;6.10;99.90;;;;;;5043632;28;20236;-59
2024/01/23 00:24:09;;;;;;;17.33;2.28;;;6.10;99.90;;;;;;5039827;28;20561;-59
2024/01/23 00:26:37;;;;;;;11.07;1.65;;;6.20;99.90;;;;;;5028869;28;20591;-58
2024/01/23 00:29:07;;;;;;;9.48;1.70;;;6.20;99.90;;;;;;5029691;28;20560;-59
2024/01/23 00:31:37;;;;;;;13.95;2.17;;;6.20;99.90;;;;;;5030275;28;20254;-57
2024/01/23 00:34:05;;;;;;;11.40;1.80;;;6.20;99.90;;;;;;5029796;28;20550;-57
2024/01/23 00:36:33;;;;;;;11.23;1.90;;;6.20;99.90;;;;;;5014421;28;20299;-58
2024/01/23 00:39:01;;;;;;;9.13;2.17;;;6.20;99.90;;;;;;5026451;28;20726;-56
2024/01/23 00:41:31;;;;;;;11.63;1.92;;;6.20;99.90;;;;;;5031039;28;20222;-57
2024/01/23 00:43:59;;;;;;;13.88;2.10;;;6.30;99.90;;;;;;5029960;28;20211;-57
2024/01/23 00:46:27;;;;;;;12.82;2.13;;;6.40;99.90;;;;;;5027097;28;20258;-57
2024/01/23 00:48:57;;;;;;;9.30;2.03;;;6.40;99.90;;;;;;5021721;28;20213;-58
2024/01/23 00:51:25;;;;;;;17.77;2.30;;;6.50;99.90;;;;;;5031097;28;20222;-57
2024/01/23 00:53:53;;;;;;;9.07;1.85;;;6.40;99.90;;;;;;5029722;28;20302;-57
2024/01/23 00:56:21;;;;;;;8.35;1.73;;;6.40;99.90;;;;;;5029238;28;20195;-58
2024/01/23 00:58:49;;;;;;;17.20;2.03;;;6.40;99.90;;;;;;5021374;28;20261;-57
2024/01/23 01:01:16;;;;;;;12.40;1.73;;;6.40;99.90;;;;;;5028950;28;20311;-58
2024/01/23 01:03:44;;;;;;;9.30;1.73;;;6.50;99.90;;;;;;5031360;28;20206;-57
2024/01/23 01:06:13;;;;;;;10.80;1.98;;;6.50;99.90;;;;;;5030967;28;20247;-58
2024/01/23 01:08:42;;;;;;;9.52;1.90;;;6.40;99.90;;;;;;5027449;28;20234;-59
2024/01/23 01:11:10;;;;;;;12.10;1.70;;;6.40;99.90;;;;;;5028871;28;20706;-58
2024/01/23 01:13:37;;;;;;;12.65;1.65;;;6.40;99.90;;;;;;5043333;28;20712;-59
2024/01/23 01:16:06;;;;;;;12.05;1.73;;;6.40;99.90;;;;;;5034856;28;20202;-58
2024/01/23 01:18:36;;;;;;;9.90;1.70;;;6.40;99.90;;;;;;5035179;28;20286;-56
2024/01/23 01:21:05;;;;;;;14.95;2.22;;;6.50;99.90;;;;;;5037422;28;20230;-57
2024/01/23 01:23:34;;;;;;;11.38;1.70;;;6.50;99.90;;;;;;5042216;28;20699;-57
2024/01/23 01:26:02;;;;;;;11.75;1.63;;;6.40;99.90;;;;;;5029110;28;20210;-59
2024/01/23 01:28:30;;;;;;;9.40;1.88;;;6.40;99.90;;;;;;5035143;28;20210;-59
2024/01/23 01:30:58;;;;;;;11.35;1.75;;;6.40;99.90;;;;;;5032310;28;20874;-59
2024/01/23 01:33:26;;;;;;;10.20;2.05;;;6.40;99.90;;;;;;5035458;28;20198;-58
2024/01/23 01:35:54;;;;;;;13.60;1.80;;;6.40;99.90;;;;;;5031665;28;20209;-57
2024/01/23 01:38:23;;;;;;;9.70;1.55;;;6.40;99.90;;;;;;5031029;28;20206;-59
2024/01/23 01:40:54;;;;;;;7.88;1.30;;;6.40;99.90;;;;;;5032967;28;20269;-58
2024/01/23 01:43:26;;;;;;;13.70;1.70;;;6.30;99.90;;;;;;5026315;28;20199;-57
2024/01/23 01:46:17;;;;;;;8.88;1.55;;;6.30;99.90;;;;;;5034361;28;20671;-57
2024/01/23 01:48:45;;;;;;;9.57;2.03;;;6.40;99.90;;;;;;5034819;28;20305;-59
2024/01/23 01:51:13;;;;;;;10.68;1.52;;;6.30;99.90;;;;;;5028768;28;20336;-59
2024/01/23 01:53:41;;;;;;;6.28;1.85;;;6.30;99.90;;;;;;5028855;28;20214;-58
2024/01/23 01:56:10;;;;;;;10.60;1.98;;;6.30;99.90;;;;;;5031147;28;20234;-59
2024/01/23 01:58:39;;;;;;;7.07;1.30;;;6.20;99.90;;;;;;5034591;28;20227;-58
2024/01/23 02:01:06;;;;;;;11.68;1.75;;;6.30;99.90;;;;;;5026754;28;20596;-58
2024/01/23 02:03:34;;;;;;;8.27;1.77;;;6.30;99.90;;;;;;5023514;28;20203;-58
2024/01/23 02:06:04;;;;;;;9.55;1.38;;;6.30;99.90;;;;;;5031756;28;20213;-58
2024/01/23 02:08:32;;;;;;;9.05;1.38;;;6.30;99.90;;;;;;5042009;28;20202;-59
2024/01/23 02:11:00;;;;;;;8.68;1.70;;;6.20;99.90;;;;;;5031939;28;20234;-58
2024/01/23 02:13:29;;;;;;;16.55;1.85;;;6.30;99.90;;;;;;5026736;28;20214;-58
2024/01/23 02:15:57;;;;;;;9.35;1.15;;;6.30;99.90;;;;;;5026204;28;20293;-58
2024/01/23 02:18:25;;;;;;;14.38;1.85;;;6.20;99.90;;;;;;5032022;28;20226;-59
2024/01/23 02:20:53;;;;;;;8.43;1.40;;;6.20;99.90;;;;;;5033489;28;20605;-57
2024/01/23 02:23:21;;;;;;;11.48;1.45;;;6.20;99.90;;;;;;5026476;28;20848;-58
2024/01/23 02:25:50;;;;;;;10.23;1.42;;;6.10;99.90;;;;;;5033220;28;20238;-58
2024/01/23 02:28:18;;;;;;;11.25;1.88;;;6.10;99.90;;;;;;5019742;28;20661;-57
2024/01/23 02:30:46;;;;;;;10.98;1.75;;;6.10;99.90;;;;;;5031771;28;20269;-57
2024/01/23 02:33:14;;;;;;;9.23;1.58;;;6.00;99.90;;;;;;5026713;28;20628;-59
2024/01/23 02:35:42;;;;;;;12.27;1.88;;;6.00;99.90;;;;;;5033220;28;20203;-58
2024/01/23 02:38:10;;;;;;;13.90;1.92;;;6.00;99.90;;;;;;5032367;28;20604;-58
2024/01/23 02:40:38;;;;;;;7.13;1.50;;;6.00;99.90;;;;;;5031829;28;20612;-57
2024/01/23 02:43:07;;;;;;;9.75;2.08;;;6.00;99.90;;;;;;5033552;28;20234;-59
2024/01/23 02:45:35;;;;;;;10.65;1.60;;;5.90;99.90;;;;;;5026299;28;20301;-58
2024/01/23 02:48:04;;;;;;;14.10;1.45;;;5.90;99.90;;;;;;5026127;28;20226;-58
2024/01/23 02:50:32;;;;;;;8.00;1.35;;;6.00;99.90;;;;;;5033251;28;20229;-59
2024/01/23 02:52:59;;;;;;;9.30;1.60;;;6.00;99.90;;;;;;5033326;28;20602;-57
2024/01/23 02:55:27;;;;;;;12.95;2.00;;;6.00;99.90;;;;;;5026184;28;20305;-59
2024/01/23 02:57:55;;;;;;;9.57;1.80;;;5.90;99.90;;;;;;5028697;28;20295;-58
2024/01/23 03:00:24;;;;;;;8.75;1.40;;;5.90;99.90;;;;;;5033308;28;20285;-58
2024/01/23 03:02:52;;;;;;;17.52;1.55;;;5.90;99.90;;;;;;5032623;28;20214;-59
2024/01/23 03:05:20;;;;;;;9.60;1.63;;;5.90;99.90;;;;;;5033048;28;20198;-59
2024/01/23 03:07:50;;;;;;;14.75;1.48;;;5.90;99.90;;;;;;5033232;28;20284;-58
2024/01/23 03:10:18;;;;;;;5.20;0.82;;;6.00;99.90;;;;;;5032964;28;20223;-57
2024/01/23 03:12:47;;;;;;;4.38;0.93;;;6.00;99.90;;;;;;5032966;28;20226;-57
2024/01/23 03:15:15;;;;;;;5.65;0.88;;;6.10;99.90;;;;;;5032780;28;20294;-59
2024/01/23 03:17:44;;;;;;;4.28;0.90;;;6.10;99.90;;;;;;5032942;28;20210;-59
2024/01/23 03:20:12;;;;;;;3.10;0.60;;;6.20;99.90;;;;;;5033093;28;20296;-58
2024/01/23 03:22:40;;;;;;;5.40;1.27;;;6.30;99.90;;;;;;5024761;28;20238;-58
2024/01/23 03:25:09;;;;;;;4.78;0.73;;;6.30;99.90;;;;;;5032614;28;20676;-56
2024/01/23 03:27:37;;;;;;;3.63;0.90;;;6.30;99.90;;;;;;5020257;28;20217;-59
2024/01/23 03:30:05;;;;;;;3.42;0.85;;;6.40;99.90;;;;;;5029291;28;20230;-59
2024/01/23 03:32:33;;;;;;;2.45;0.80;;;6.40;99.90;;;;;;5016848;28;20222;-58
2024/01/23 03:35:03;;;;;;;10.10;1.00;;;6.40;99.90;;;;;;5032093;28;20207;-57
2024/01/23 03:37:31;;;;;;;7.00;1.05;;;6.40;99.90;;;;;;5032735;28;20207;-57
2024/01/23 03:39:59;;;;;;;7.03;0.85;;;6.40;99.90;;;;;;5032462;28;20314;-58
2024/01/23 03:42:27;;;;;;;4.38;0.75;;;6.30;99.90;;;;;;5032479;28;20203;-58
2024/01/23 03:44:55;;;;;;;5.68;0.77;;;6.20;99.90;;;;;;5032849;28;20217;-62
2024/01/23 03:47:23;;;;;;;5.13;1.10;;;6.10;99.90;;;;;;5031404;28;20218;-57
2024/01/23 03:49:51;;;;;;;3.33;0.73;;;6.10;99.90;;;;;;5024486;28;20226;-58
2024/01/23 03:52:22;;;;;;;5.00;0.52;;;6.00;99.90;;;;;;5031330;28;20276;-57
2024/01/23 03:54:50;;;;;;;4.35;0.80;;;6.00;99.90;;;;;;5032471;28;20302;-57
2024/01/23 03:57:18;;;;;;;1.77;0.68;;;5.90;99.90;;;;;;5031710;28;20230;-58
2024/01/23 03:59:46;;;;;;;6.05;0.95;;;5.90;99.90;;;;;;5032302;28;20249;-57
2024/01/23 04:02:14;;;;;;;8.88;0.60;;;5.90;99.90;;;;;;5031928;28;20276;-57
2024/01/23 04:04:42;;;;;;;4.25;0.55;;;5.80;99.90;;;;;;5032341;28;20241;-57
2024/01/23 04:07:10;;;;;;;5.68;1.30;;;5.70;99.90;;;;;;5031359;28;20203;-57
2024/01/23 04:09:40;;;;;;;4.57;0.73;;;5.70;99.90;;;;;;5031628;28;20207;-57
2024/01/23 04:12:08;;;;;;;8.13;0.70;;;5.70;99.90;;;;;;5026508;28;20258;-59
2024/01/23 04:14:36;;;;;;;2.72;0.90;;;5.60;99.90;;;;;;5032309;28;20209;-57
2024/01/23 04:17:04;;;;;;;3.20;0.70;;;5.60;99.90;;;;;;5031792;28;20234;-57
2024/01/23 04:19:32;;;;;;;5.07;0.85;;;5.60;99.90;;;;;;5023828;28;20281;-58
2024/01/23 04:22:00;;;;;;;4.35;0.80;;;5.60;99.90;;;;;;5031503;28;20207;-57
2024/01/23 04:24:28;;;;;;;4.32;0.90;;;5.60;99.90;;;;;;5031609;28;20234;-58
2024/01/23 04:26:57;;;;;;;8.98;0.80;;;5.60;99.90;;;;;;5031739;28;20210;-57
2024/01/23 04:29:25;;;;;;;5.35;0.80;;;5.50;99.90;;;;;;5029244;28;20241;-57
2024/01/23 04:31:52;;;;;;;4.70;0.80;;;5.50;99.90;;;;;;5026248;28;20297;-62
2024/01/23 04:34:20;;;;;;;6.95;1.08;;;5.50;99.90;;;;;;5023918;28;20720;-57
2024/01/23 04:36:48;;;;;;;4.22;0.65;;;5.50;99.90;;;;;;5031186;28;20210;-59
2024/01/23 04:39:17;;;;;;;5.25;0.80;;;5.40;99.90;;;;;;5031311;28;20242;-59
2024/01/23 04:41:45;;;;;;;9.70;1.30;;;5.40;99.90;;;;;;5031086;28;20624;-58
2024/01/23 04:44:14;;;;;;;7.10;1.13;;;5.40;99.90;;;;;;5031709;28;20289;-64
2024/01/23 04:46:42;;;;;;;7.93;1.20;;;5.30;99.90;;;;;;5024985;28;20252;-57
2024/01/23 04:49:10;;;;;;;4.30;0.70;;;5.30;99.90;;;;;;5031381;28;20207;-58
2024/01/23 04:51:38;;;;;;;4.75;0.73;;;5.30;99.90;;;;;;5030913;28;20226;-57
2024/01/23 04:54:05;;;;;;;3.75;0.68;;;5.20;99.90;;;;;;5031486;28;20297;-58
2024/01/23 04:56:33;;;;;;;5.20;0.88;;;5.20;99.90;;;;;;5030742;28;20206;-57
2024/01/23 04:59:01;;;;;;;4.20;0.60;;;5.10;99.90;;;;;;5031293;28;20656;-57
2024/01/23 05:01:30;;;;;;;6.13;0.65;;;5.10;99.90;;;;;;5030670;28;20313;-58
2024/01/23 05:03:58;;;;;;;1.77;0.47;;;5.00;99.90;;;;;;5031385;28;20206;-57
2024/01/23 05:06:26;;;;;;;7.70;0.55;;;5.00;99.90;;;;;;5030777;28;20234;-57
2024/01/23 05:08:54;;;;;;;7.00;1.15;;;4.90;99.90;;;;;;5031189;28;20696;-58
2024/01/23 05:11:22;;;;;;;2.33;0.55;;;4.80;99.90;;;;;;5029304;28;20699;-57
2024/01/23 05:13:50;;;;;;;11.23;1.00;;;4.70;99.90;;;;;;5031218;28;20688;-57
2024/01/23 05:16:18;;;;;;;8.70;1.02;;;4.70;99.90;;;;;;5029664;28;20348;-57
2024/01/23 05:18:48;;;;;;;9.52;0.90;;;4.70;99.90;;;;;;5031017;28;20205;-57
2024/01/23 05:21:16;;;;;;;11.05;1.30;;;4.70;99.90;;;;;;5030108;28;20226;-58
2024/01/23 05:23:44;;;;;;;11.73;1.02;;;4.60;99.90;;;;;;5030801;28;20206;-57
2024/01/23 05:26:12;;;;;;;7.97;1.25;;;4.60;99.90;;;;;;5024124;28;20199;-56
2024/01/23 05:28:40;;;;;;;5.32;1.10;;;4.60;99.90;;;;;;5030882;28;20739;-57
2024/01/23 05:31:08;;;;;;;9.88;1.35;;;4.50;99.90;;;;;;5024390;28;20334;-58
2024/01/23 05:33:36;;;;;;;14.77;1.60;;;4.50;99.90;;;;;;5038246;22;20261;-61
2024/01/23 05:36:06;;;;;;;11.38;1.67;;;4.40;99.90;;;;;;5025878;28;20210;-60
2024/01/23 05:38:33;;;;;;;8.32;1.33;;;4.40;99.90;;;;;;5022108;28;20576;-60
2024/01/23 05:41:01;;;;;;;8.20;1.20;;;4.40;99.90;;;;;;5025761;28;20256;-61
2024/01/23 05:43:29;;;;;;;9.30;1.50;;;4.40;99.90;;;;;;5030722;28;20254;-60
2024/01/23 05:45:57;;;;;;;11.27;1.67;;;4.40;99.90;;;;;;5028087;28;20289;-61
2024/01/23 05:48:25;;;;;;;10.02;1.27;;;4.30;99.90;;;;;;5030833;28;20649;-61
2024/01/23 05:50:53;;;;;;;10.57;1.73;;;4.30;99.90;;;;;;5030226;28;20211;-61
2024/01/23 05:53:23;;;;;;;5.00;1.20;;;4.40;99.90;;;;;;5030679;28;20317;-61
2024/01/23 05:55:50;;;;;;;10.70;1.30;;;4.40;99.90;;;;;;5030284;28;20234;-60
2024/01/23 05:58:18;;;;;;;8.55;1.58;;;4.40;99.90;;;;;;5032018;28;20683;-60
2024/01/23 06:00:46;;;;;;;11.63;1.80;;;4.40;99.90;;;;;;5032991;28;20570;-60
2024/01/23 06:03:14;;;;;;;13.55;1.58;;;4.40;99.90;;;;;;5021838;28;20249;-60
2024/01/23 06:05:42;;;;;;;9.10;2.28;;;4.30;99.90;;;;;;5027020;28;20239;-59
2024/01/23 06:08:10;;;;;;;20.05;1.70;;;4.30;99.90;;;;;;5027428;28;20796;-61
2024/01/23 06:10:39;;;;;;;6.13;1.40;;;4.40;99.90;;;;;;5030913;28;20288;-61
2024/01/23 06:13:07;;;;;;;12.23;1.70;;;4.30;99.90;;;;;;5031466;28;20210;-61
2024/01/23 06:15:36;;;;;;;10.95;1.50;;;4.30;99.90;;;;;;5028755;28;20244;-61
2024/01/23 06:18:07;;;;;;;8.73;1.40;;;4.30;99.90;;;;;;5024982;28;20206;-61
2024/01/23 06:20:35;;;;;;;13.93;1.38;;;4.40;99.90;;;;;;5033601;28;20626;-60
2024/01/23 06:23:04;;;;;;;6.95;1.00;;;4.40;99.90;;;;;;5023372;28;22085;-60
2024/01/23 06:25:31;;;;;;;8.25;1.83;;;4.30;99.90;;;;;;5029855;28;20239;-60
2024/01/23 06:28:01;;;;;;;6.57;1.40;;;4.30;99.90;;;;;;5027095;28;20868;-61
2024/01/23 06:30:29;;;;;;;9.48;1.40;;;4.30;99.90;;;;;;5031748;28;20269;-63
2024/01/23 06:32:57;;;;;;;7.95;1.30;;;4.30;99.90;;;;;;5027882;28;20246;-60
2024/01/23 06:35:25;;;;;;;8.38;1.67;;;4.20;99.90;;;;;;5023560;28;20206;-61
2024/01/23 06:37:53;;;;;;;9.88;1.42;;;4.20;99.90;;;;;;5033068;28;20285;-60
2024/01/23 06:40:21;;;;;;;8.05;1.77;;;4.10;99.90;;;;;;5033446;28;20245;-60
2024/01/23 06:42:49;;;;;;;11.43;1.70;;;4.10;99.90;;;;;;5032506;28;20265;-59
2024/01/23 06:45:18;;;;;;;10.15;1.50;;;4.00;99.90;;;;;;5033400;28;20230;-62
2024/01/23 06:47:46;;;;;;;9.88;1.92;;;4.10;99.90;;;;;;5031759;28;20210;-61
2024/01/23 06:50:14;;;;;;;10.20;1.60;;;4.00;99.90;;;;;;5028000;28;20225;-61
2024/01/23 06:52:42;;;;;;;11.73;2.20;;;4.00;99.90;;;;;;5031011;28;20207;-61
2024/01/23 06:55:10;;;;;;;13.80;2.35;;;4.00;99.90;;;;;;5030368;28;20679;-61
2024/01/23 06:57:38;;;;;;;12.80;2.17;;;3.90;99.90;;;;;;5033112;28;20202;-61
2024/01/23 07:00:08;;;;;;;5.90;1.75;;;3.90;99.90;;;;;;5033333;28;20714;-62
2024/01/23 07:02:37;;;;;;;12.63;2.42;;;3.90;99.90;;;;;;5032750;28;20290;-62
2024/01/23 07:05:06;;;;;;;14.93;2.58;;;3.90;99.90;;;;;;5032985;28;20229;-61
2024/01/23 07:07:34;;;;;;;7.07;1.80;;;4.00;99.90;;;;;;5026064;28;20237;-60
2024/01/23 07:10:02;;;;;;;8.23;1.80;;;4.00;99.90;;;;;;5032872;28;20211;-61
2024/01/23 07:12:30;;;;;;;17.25;2.85;;;4.00;99.90;;;;;;5032646;28;20623;-62
2024/01/23 07:14:58;;;;;;;12.50;1.95;;;4.00;99.90;;;;;;5033050;28;20230;-61
2024/01/23 07:17:26;;;;;;;15.90;2.35;;;4.00;99.90;;;;;;5032696;28;20303;-62
2024/01/23 07:19:56;;;;;;;11.25;2.28;;;4.10;99.90;;;;;;5033344;28;20221;-62
2024/01/23 07:22:24;;;;;;;11.07;2.30;;;4.10;99.90;;;;;;5022235;28;20261;-62
2024/01/23 07:24:52;;;;;;;14.90;1.38;;;4.10;99.90;;;;;;5027718;28;20314;-64
2024/01/23 07:27:20;;;;;;;10.65;1.55;;;4.80;99.90;;;;;;5033740;28;20207;-64
2024/01/23 07:29:48;;;;;;;10.75;1.90;;;6.20;99.90;;;;;;5033715;28;20209;-64
2024/01/23 07:32:16;;;;;;;8.75;2.00;;;7.50;99.90;;;;;;5029636;28;20230;-62
2024/01/23 07:34:44;;;;;;;12.35;1.77;;;8.00;99.90;;;;;;5024613;28;20328;-63
2024/01/23 07:37:13;;;;;;;14.43;2.17;;;7.60;99.90;;;;;;5032967;28;20249;-62
2024/01/23 07:39:41;;;;;;;12.25;2.42;;;7.10;99.90;;;;;;5032915;28;20237;-62
2024/01/23 07:42:09;;;;;;;12.93;2.40;;;6.60;99.90;;;;;;5032228;28;20294;-62
2024/01/23 07:44:39;;;;;;;13.98;2.47;;;6.20;99.90;;;;;;5033058;28;20307;-62
2024/01/23 07:47:07;;;;;;;9.30;1.70;;;5.90;99.90;;;;;;5029873;28;20203;-61
2024/01/23 07:49:35;;;;;;;16.20;1.98;;;5.60;99.90;;;;;;5032210;28;20206;-62
2024/01/23 07:52:04;;;;;;;12.43;1.85;;;5.50;99.90;;;;;;5030788;28;20206;-62
2024/01/23 07:54:33;;;;;;;14.70;2.28;;;5.40;99.90;;;;;;5031851;28;20230;-62
2024/01/23 07:57:01;;;;;;;8.20;2.00;;;5.30;99.90;;;;;;5031826;28;20207;-61
2024/01/23 07:59:29;;;;;;;9.95;2.40;;;5.20;99.90;;;;;;5030253;28;20297;-60
2024/01/23 08:01:57;;;;;;;13.20;1.92;;;5.10;99.90;;;;;;5029327;28;20878;-63
2024/01/23 08:04:25;;;;;;;13.15;1.98;;;5.10;99.90;;;;;;5031619;28;20250;-62
2024/01/23 08:06:54;;;;;;;18.55;2.20;;;5.00;99.90;;;;;;5031973;28;20579;-62
2024/01/23 08:09:22;;;;;;;18.38;2.25;;;5.00;99.90;;;;;;5032199;28;20725;-62
2024/01/23 08:11:52;;;;;;;10.85;1.80;;;5.00;99.90;;;;;;5031689;28;20345;-62
2024/01/23 08:14:20;;;;;;;10.25;1.80;;;5.00;99.90;;;;;;5032413;28;20234;-63
2024/01/23 08:16:48;;;;;;;17.63;2.72;;;5.10;99.90;;;;;;5032012;28;20202;-62
2024/01/23 08:19:16;;;;;;;13.60;2.30;;;5.10;99.90;;;;;;5032220;28;20671;-62
2024/01/23 08:21:45;;;;;;;14.95;2.00;;;5.20;99.90;;;;;;5016892;28;20657;-63
2024/01/23 08:24:13;;;;;;;21.58;3.03;;;5.20;99.90;;;;;;5031988;28;20230;-62
2024/01/23 08:26:41;;;;;;;17.02;2.40;;;5.30;99.90;;;;;;5031949;28;20264;-63
2024/01/23 08:29:10;;;;;;;13.65;1.80;;;5.30;99.90;;;;;;5032173;28;20206;-63
2024/01/23 08:31:38;;;;;;;15.38;2.25;;;5.30;99.90;;;;;;5031407;28;20207;-62
2024/01/23 08:34:06;;;;;;;14.88;2.05;;;5.30;99.90;;;;;;5031726;28;20777;-62
2024/01/23 08:36:34;;;;;;;10.82;1.65;;;5.30;99.90;;;;;;5031560;28;20207;-61
2024/01/23 08:39:03;;;;;;;15.60;2.15;;;5.30;99.90;;;;;;5032101;28;20593;-62
2024/01/23 08:41:31;;;;;;;15.65;2.58;;;5.20;99.90;;;;;;5031505;28;20203;-62
2024/01/23 08:43:59;;;;;;;16.25;2.28;;;5.20;99.90;;;;;;5031878;28;20226;-62
2024/01/23 08:46:29;;;;;;;14.95;2.13;;;5.20;99.90;;;;;;5031480;28;20246;-63
2024/01/23 08:48:56;;;;;;;11.43;1.98;;;5.20;99.90;;;;;;5031701;28;20207;-62
2024/01/23 08:51:24;;;;;;;13.45;2.13;;;5.20;99.90;;;;;;5031075;28;20214;-63
2024/01/23 08:53:54;;;;;;;10.60;2.40;;;5.30;99.90;;;;;;5031660;28;20332;-62
2024/01/23 08:56:23;;;;;;;11.82;1.90;;;5.30;99.90;;;;;;5031531;28;20230;-63
2024/01/23 08:58:51;;;;;;;16.40;2.65;;;5.40;99.90;;;;;;5031453;28;20214;-62
2024/01/23 09:01:18;;;;;;;12.63;2.45;;;5.50;99.90;;;;;;5031002;28;20664;-61
2024/01/23 09:03:48;;;;;;;10.20;1.88;;;5.60;99.90;;;;;;5031436;28;20231;-61
2024/01/23 09:06:16;;;;;;;13.00;2.13;;;5.70;99.90;;;;;;5031316;28;20289;-63
2024/01/23 09:08:44;;;;;;;13.90;2.58;;;5.80;99.90;;;;;;5031405;28;20218;-62
2024/01/23 09:11:12;;;;;;;12.82;2.00;;;6.00;99.90;;;;;;5031059;28;20214;-62
2024/01/23 09:13:39;;;;;;;16.63;2.65;;;6.40;99.90;;;;;;5031104;28;20313;-63
2024/01/23 09:16:07;;;;;;;17.48;2.90;;;6.60;99.90;;;;;;5031534;28;20230;-63
2024/01/23 09:18:35;;;;;;;11.93;2.60;;;6.60;99.90;;;;;;5031184;28;20211;-63
2024/01/23 09:21:05;;;;;;;13.63;2.13;;;6.60;99.90;;;;;;5027743;28;20575;-63
2024/01/23 09:23:33;;;;;;;14.13;2.47;;;6.50;99.90;;;;;;5028901;28;20230;-63
2024/01/23 09:26:01;;;;;;;10.88;1.70;;;6.50;99.90;;;;;;5028891;28;20238;-62
2024/01/23 09:28:29;;;;;;;13.38;2.15;;;6.40;99.90;;;;;;5029608;28;20210;-63
2024/01/23 09:30:57;;;;;;;13.30;2.63;;;6.40;99.90;;;;;;5033120;28;20691;-64
2024/01/23 09:33:25;;;;;;;18.85;3.00;;;6.30;99.90;;;;;;5032109;28;20234;-63
2024/01/23 09:35:53;;;;;;;13.98;2.47;;;6.40;99.90;;;;;;5027585;28;20261;-63
2024/01/23 09:38:22;;;;;;;21.35;2.33;;;6.40;99.90;;;;;;5034828;28;20289;-62
2024/01/23 09:40:50;;;;;;;12.23;2.38;;;6.40;99.90;;;;;;5035054;28;20297;-63
2024/01/23 09:43:20;;;;;;;11.27;2.63;;;6.40;99.90;;;;;;5035217;28;20356;-63
2024/01/23 09:45:48;;;;;;;17.08;2.42;;;6.40;99.90;;;;;;5036157;28;20194;-62
2024/01/23 09:48:16;;;;;;;16.35;2.30;;;6.40;99.90;;;;;;5035812;28;20213;-63
2024/01/23 09:50:45;;;;;;;14.40;2.67;;;6.40;99.90;;;;;;5035052;28;20294;-63
2024/01/23 09:53:13;;;;;;;14.10;2.33;;;6.50;99.90;;;;;;5035179;28;20597;-62
2024/01/23 09:55:42;;;;;;;13.77;2.67;;;6.50;99.90;;;;;;5035271;28;20708;-63
2024/01/23 09:58:10;;;;;;;13.77;2.40;;;6.50;99.90;;;;;;5034825;28;20301;-61
2024/01/23 10:00:38;;;;;;;15.38;2.33;;;6.60;99.90;;;;;;5034900;28;20238;-62
2024/01/23 10:03:07;;;;;;;13.75;2.33;;;6.60;99.90;;;;;;5035985;28;20269;-62
2024/01/23 10:05:36;;;;;;;12.30;2.15;;;6.60;99.90;;;;;;5034721;28;20242;-61
2024/01/23 10:08:06;;;;;;;18.25;2.33;;;6.70;99.90;;;;;;5033844;28;20306;-59
2024/01/23 10:10:36;;;;;;;10.32;2.60;;;6.70;99.90;;;;;;5031669;28;20207;-61
2024/01/23 10:13:05;;;;;;;11.00;2.53;;;6.80;99.90;;;;;;5033988;28;20249;-63
2024/01/23 10:15:33;;;;;;;15.60;1.90;;;6.90;99.90;;;;;;5035033;28;20238;-62
2024/01/23 10:18:01;;;;;;;12.20;2.65;;;6.90;99.90;;;;;;5035137;28;20267;-63
2024/01/23 10:20:30;;;;;;;14.63;2.42;;;7.00;99.90;;;;;;5034815;28;20234;-63
2024/01/23 10:22:59;;;;;;;15.13;1.95;;;7.00;99.90;;;;;;5033354;28;20264;-63
2024/01/23 10:25:28;;;;;;;11.90;1.83;;;7.00;99.90;;;;;;5033351;28;20632;-62
2024/01/23 10:27:57;;;;;;;13.35;2.45;;;7.10;99.90;;;;;;5034957;28;20561;-63
2024/01/23 10:30:27;;;;;;;16.15;2.33;;;7.10;99.90;;;;;;5031052;28;20213;-63
2024/01/23 10:32:54;;;;;;;16.77;2.28;;;7.20;99.90;;;;;;5032132;28;20216;-61
2024/01/23 10:35:22;;;;;;;17.77;2.30;;;7.20;99.90;;;;;;5034873;28;20242;-63
2024/01/23 10:37:50;;;;;;;13.93;2.75;;;7.20;99.90;;;;;;5034340;28;20211;-62
2024/01/23 10:40:23;;;;;;;12.55;2.25;;;7.30;99.90;;;;;;5034739;28;20318;-63
2024/01/23 10:42:51;;;;;;;12.20;2.13;;;7.40;99.90;;;;;;5030278;28;20655;-63
2024/01/23 10:45:19;;;;;;;15.55;2.80;;;7.50;99.90;;;;;;5033205;28;20790;-63
2024/01/23 10:47:48;;;;;;;13.13;2.08;;;7.50;99.90;;;;;;5034240;28;20203;-61
2024/01/23 10:50:17;;;;;;;18.25;2.85;;;7.60;99.90;;;;;;5034845;28;20206;-63
2024/01/23 10:52:46;;;;;;;17.05;3.35;;;7.70;99.90;;;;;;5031917;28;20257;-63
2024/01/23 10:55:16;;;;;;;17.70;2.60;;;7.90;99.90;;;;;;5027858;28;20235;-63
2024/01/23 10:57:46;;;;;;;15.90;2.05;;;8.20;99.90;;;;;;5033423;28;20230;-63
2024/01/23 11:00:16;;;;;;;14.00;2.33;;;8.40;99.90;;;;;;5033504;28;20645;-63
2024/01/23 11:02:46;;;;;;;18.55;3.55;;;8.60;99.90;;;;;;5032511;28;20287;-63
2024/01/23 11:05:15;;;;;;;11.73;2.42;;;8.90;99.90;;;;;;5033438;28;20222;-63
2024/01/23 11:07:46;;;;;;;17.35;3.30;;;9.10;99.90;;;;;;5033144;28;20198;-63
2024/01/23 11:10:21;;;;;;;15.90;2.78;;;9.30;99.90;;;;;;5032988;28;20297;-63
2024/01/23 11:12:52;;;;;;;13.15;2.17;;;9.40;99.90;;;;;;5031147;28;20210;-63
2024/01/23 11:15:20;;;;;;;11.65;2.90;;;9.50;99.90;;;;;;5033435;28;20226;-62
2024/01/23 11:17:47;;;;;;;11.90;2.83;;;9.60;99.90;;;;;;5033198;28;20230;-61
2024/01/23 11:20:18;;;;;;;13.63;2.38;;;9.80;99.90;;;;;;5033539;28;20624;-61
2024/01/23 11:22:46;;;;;;;14.95;2.40;;;10.00;99.90;;;;;;5032498;28;20206;-63
2024/01/23 11:25:16;;;;;;;14.00;2.47;;;10.30;99.90;;;;;;5032845;28;20226;-62
2024/01/23 11:27:46;;;;;;;10.95;2.53;;;10.60;99.90;;;;;;5032997;28;20227;-63
2024/01/23 11:30:14;;;;;;;16.52;2.55;;;10.70;99.90;;;;;;5033173;28;20213;-61
2024/01/23 11:32:42;;;;;;;16.67;2.85;;;10.70;99.90;;;;;;5032832;28;20206;-62
2024/01/23 11:35:12;;;;;;;15.30;2.55;;;10.50;99.90;;;;;;5032524;28;20711;-63
2024/01/23 11:37:47;;;;;;;13.40;2.58;;;10.40;99.90;;;;;;5030054;28;20284;-63
2024/01/23 11:40:37;;;;;;;16.73;2.58;;;10.20;99.90;;;;;;5029178;28;20584;-61
2024/01/23 11:43:07;;;;;;;11.35;2.03;;;10.10;99.90;;;;;;5039671;28;20207;-63
2024/01/23 11:45:36;;;;;;;7.63;2.08;;;10.00;99.90;;;;;;5032674;28;20234;-63
2024/01/23 11:48:05;;;;;;;19.63;3.53;;;10.00;99.90;;;;;;5032760;28;20199;-63
2024/01/23 11:50:33;;;;;;;14.20;3.55;;;10.00;99.90;;;;;;5033081;28;20198;-63
2024/01/23 11:53:03;;;;;;;15.25;3.33;;;10.00;99.90;;;;;;5032677;28;20293;-63
2024/01/23 11:55:36;;;;;;;13.50;3.47;;;10.00;99.90;;;;;;5031871;28;20723;-63
2024/01/23 11:58:04;;;;;;;18.90;4.55;;;10.00;99.90;;;;;;5032941;28;20254;-62
2024/01/23 12:00:32;;;;;;;17.05;3.25;;;10.00;99.90;;;;;;5032885;28;20680;-61
2024/01/23 12:03:00;;;;;;;15.95;3.25;;;9.90;99.90;;;;;;5032847;28;20199;-63
2024/01/23 12:05:28;;;;;;;12.55;3.13;;;9.90;99.90;;;;;;5032797;28;20202;-63
2024/01/23 12:07:56;;;;;;;16.45;3.50;;;9.80;99.90;;;;;;5032734;28;20198;-63
2024/01/23 12:10:25;;;;;;;18.30;3.50;;;9.80;99.90;;;;;;5032662;28;20241;-63
2024/01/23 12:12:56;;;;;;;20.10;4.05;;;9.80;99.90;;;;;;5032475;28;20214;-62
2024/01/23 12:15:24;;;;;;;16.77;3.38;;;9.70;99.90;;;;;;5032382;28;20785;-63
2024/01/23 12:17:52;;;;;;;13.07;2.40;;;9.70;99.90;;;;;;5032338;28;20262;-63
2024/01/23 12:20:20;;;;;;;14.98;2.70;;;9.70;99.90;;;;;;5032511;28;20302;-63
2024/01/23 12:22:48;;;;;;;17.08;3.55;;;9.70;99.90;;;;;;5024221;28;20202;-63
2024/01/23 12:25:16;;;;;;;19.05;3.25;;;9.70;99.90;;;;;;5032134;28;20218;-62
2024/01/23 12:27:46;;;;;;;19.67;3.42;;;9.70;99.90;;;;;;5031879;28;20234;-62
2024/01/23 12:30:14;;;;;;;13.88;2.78;;;9.70;99.90;;;;;;5032637;28;20217;-63
2024/01/23 12:32:47;;;;;;;23.25;3.92;;;9.70;99.90;;;;;;5032000;28;20210;-63
2024/01/23 12:35:15;;;;;;;20.75;2.63;;;9.70;99.90;;;;;;5032302;28;20862;-64
2024/01/23 12:37:43;;;;;;;17.80;3.40;;;9.80;99.90;;;;;;5031798;28;20757;-63
2024/01/23 12:40:13;;;;;;;17.17;2.83;;;9.70;99.90;;;;;;5032229;28;20209;-63
2024/01/23 12:42:44;;;;;;;17.42;2.80;;;9.70;99.90;;;;;;5031704;28;20588;-63
2024/01/23 12:45:14;;;;;;;15.18;3.25;;;9.70;99.90;;;;;;5032325;28;20610;-62
2024/01/23 12:47:43;;;;;;;15.95;3.35;;;9.70;99.90;;;;;;5031458;28;20218;-63
2024/01/23 12:50:16;;;;;;;17.60;2.92;;;9.60;99.90;;;;;;5031829;28;20207;-63
2024/01/23 12:52:43;;;;;;;15.40;2.53;;;9.60;99.90;;;;;;5031040;28;20268;-62
2024/01/23 12:55:13;;;;;;;15.45;2.40;;;9.50;99.90;;;;;;5031704;28;20268;-64
2024/01/23 12:57:41;;;;;;;16.52;2.78;;;9.40;99.90;;;;;;5031383;28;20230;-63